| time (UTC) | temp F | wind direction | speed MPH | gust MPH | rain 1hr in | rain 24hr in | rain mn in | humidity % | barometer mb |
| 20260906003015 | 78 | 284 | 1.0 | 2.0 | 0.00 | 0.00 | 0.00 | 82 | 1009.3 |
| 20260906001514 | 79 | 284 | 0.0 | 1.0 | 0.00 | 0.00 | 0.00 | 81 | 1009.2 |
| 20260906000013 | 80 | 288 | 0.0 | 1.0 | 0.00 | 0.00 | 0.00 | 80 | 1009.5 |
| 20260905234514 | 81 | 288 | 0.0 | 2.0 | 0.00 | 0.00 | 0.00 | 77 | 1009.6 |
| 20260905233012 | 81 | 244 | 0.0 | 1.0 | 0.00 | 0.00 | 0.00 | 76 | 1009.3 |
| 20260905231512 | 82 | 242 | 0.0 | 0.0 | 0.00 | 0.00 | 0.00 | 75 | 1009.4 |
| 20260905230012 | 83 | 242 | 0.0 | 1.0 | 0.00 | 0.00 | 0.00 | 71 | 1009.2 |
| 20260905224517 | 84 | 274 | 2.0 | 5.0 | 0.00 | 0.00 | 0.00 | 69 | 1009.3 |
| 20260905223010 | 84 | 256 | 0.0 | 3.0 | 0.00 | 0.00 | 0.00 | 69 | 1009.2 |
| 20260905221526 | 84 | 243 | 1.0 | 4.0 | 0.00 | 0.00 | 0.00 | 69 | 1009.2 |
| 20260905220009 | 84 | 252 | 3.0 | 6.0 | 0.00 | 0.00 | 0.00 | 69 | 1009.2 |
| 20260905214509 | 84 | 263 | 3.0 | 6.0 | 0.00 | 0.00 | 0.00 | 69 | 1009.5 |
| 20260905213007 | 83 | 239 | 2.0 | 7.0 | 0.00 | 0.00 | 0.00 | 70 | 1009.8 |
| 20260905211507 | 83 | 114 | 3.0 | 7.0 | 0.00 | 0.00 | 0.00 | 74 | 1010.0 |
| 20260905210008 | 83 | 244 | 1.0 | 2.0 | 0.00 | 0.00 | 0.00 | 74 | 1009.4 |
| 20260905204504 | 84 | 310 | 0.0 | 3.0 | 0.00 | 0.00 | 0.00 | 73 | 1009.6 |
| 20260905203003 | 85 | 149 | 0.0 | 3.0 | 0.00 | 0.00 | 0.00 | 69 | 1010.1 |
| 20260905201502 | 86 | 216 | 0.0 | 3.0 | 0.00 | 0.00 | 0.00 | 64 | 1010.2 |
| 20260905200104 | 86 | 305 | 2.0 | 5.0 | 0.00 | 0.00 | 0.00 | 66 | 1010.3 |
| 20260905194559 | 85 | 257 | 1.0 | 4.0 | 0.00 | 0.00 | 0.00 | 71 | 1010.3 |
| 20260905193058 | 83 | 18 | 1.0 | 3.0 | 0.00 | 0.00 | 0.00 | 72 | 1010.4 |
| 20260905191557 | 81 | 96 | 0.0 | 2.0 | 0.00 | 0.00 | 0.00 | 76 | 1010.7 |
| 20260905190112 | 80 | 29 | 1.0 | 4.0 | 0.00 | 0.00 | 0.00 | 73 | 1010.9 |
| 20260905184611 | 79 | 307 | 0.0 | 2.0 | 0.00 | 0.00 | 0.00 | 79 | 1011.0 |
| 20260905183054 | 79 | 312 | 0.0 | 7.0 | 0.00 | 0.00 | 0.00 | 80 | 1010.9 |
| 20260905181553 | 80 | 324 | 2.0 | 5.0 | 0.00 | 0.00 | 0.00 | 81 | 1011.1 |
| 20260905180052 | 82 | 347 | 2.0 | 8.0 | 0.00 | 0.00 | 0.00 | 73 | 1011.7 |
| 20260905174557 | 85 | 27 | 5.0 | 13.0 | 0.00 | 0.00 | 0.00 | 68 | 1011.3 |
| 20260905173051 | 87 | 26 | 7.0 | 16.0 | 0.00 | 0.00 | 0.00 | 62 | 1011.5 |
| 20260905171551 | 92 | 345 | 2.0 | 6.0 | 0.00 | 0.00 | 0.00 | 60 | 1011.1 |
| 20260905170048 | 91 | 238 | 1.0 | 4.0 | 0.00 | 0.00 | 0.00 | 62 | 1010.9 |
| 20260905164549 | 89 | 264 | 1.0 | 5.0 | 0.00 | 0.00 | 0.00 | 64 | 1011.7 |
| 20260905163043 | 89 | 85 | 3.0 | 7.0 | 0.00 | 0.00 | 0.00 | 64 | 1011.7 |
| 20260905161541 | 88 | 85 | 4.0 | 7.0 | 0.00 | 0.00 | 0.00 | 65 | 1011.8 |
| 20260905160040 | 87 | 79 | 2.0 | 4.0 | 0.00 | 0.00 | 0.00 | 69 | 1011.8 |
| 20260905154537 | 85 | 74 | 0.0 | 4.0 | 0.00 | 0.00 | 0.00 | 75 | 1011.8 |
| 20260905153036 | 85 | 224 | 0.0 | 2.0 | 0.00 | 0.00 | 0.00 | 76 | 1012.0 |
| 20260905151536 | 85 | 242 | 1.0 | 2.0 | 0.00 | 0.00 | 0.00 | 77 | 1012.0 |
| 20260905150035 | 84 | 259 | 3.0 | 6.0 | 0.00 | 0.00 | 0.00 | 74 | 1012.2 |
| 20260905144540 | 84 | 258 | 1.0 | 4.0 | 0.00 | 0.00 | 0.00 | 76 | 1012.1 |
| 20260905143032 | 83 | 305 | 1.0 | 3.0 | 0.00 | 0.00 | 0.00 | 77 | 1012.4 |
| 20260905141528 | 80 | 97 | 0.0 | 2.0 | 0.00 | 0.00 | 0.00 | 82 | 1012.3 |
| 20260905140023 | 79 | 97 | 1.0 | 2.0 | 0.00 | 0.00 | 0.00 | 83 | 1012.3 |
| 20260905134520 | 79 | 342 | 0.0 | 1.0 | 0.00 | 0.00 | 0.00 | 85 | 1012.4 |
| 20260905133019 | 79 | 36 | 0.0 | 2.0 | 0.00 | 0.00 | 0.00 | 86 | 1012.7 |
| 20260905131537 | 77 | 50 | 0.0 | 2.0 | 0.00 | 0.00 | 0.00 | 86 | 1012.7 |
| 20260905130015 | 77 | 50 | 0.0 | 3.0 | 0.00 | 0.00 | 0.00 | 87 | 1012.8 |
| 20260905124533 | 75 | 290 | 0.0 | 1.0 | 0.00 | 0.00 | 0.00 | 90 | 1012.8 |
| 20260905123011 | 74 | 290 | 0.0 | 1.0 | 0.00 | 0.00 | 0.00 | 93 | 1012.6 |
| 20260905121521 | 73 | 291 | 0.0 | 2.0 | 0.00 | 0.00 | 0.00 | 94 | 1012.5 |
| 20260905120010 | 72 | 291 | 0.0 | 1.0 | 0.00 | 0.00 | 0.00 | 95 | 1012.4 |
| 20260905114523 | 72 | 291 | 0.0 | 1.0 | 0.00 | 0.00 | 0.00 | 95 | 1012.3 |
| 20260905113006 | 72 | 291 | 0.0 | 0.0 | 0.00 | 0.00 | 0.00 | 95 | 1011.9 |
| 20260905111507 | 72 | 291 | 0.0 | 1.0 | 0.00 | 0.00 | 0.00 | 95 | 1011.8 |
| 20260905110004 | 72 | 291 | 0.0 | 0.0 | 0.00 | 0.00 | 0.00 | 95 | 1011.7 |
| 20260905104504 | 73 | 291 | 1.0 | 3.0 | 0.00 | 0.00 | 0.00 | 94 | 1011.5 |
| 20260905103006 | 72 | 291 | 0.0 | 3.0 | 0.00 | 0.00 | 0.00 | 94 | 1011.5 |
| 20260905101502 | 73 | 291 | 1.0 | 3.0 | 0.00 | 0.00 | 0.00 | 94 | 1011.1 |
| 20260905100002 | 73 | 291 | 0.0 | 0.0 | 0.00 | 0.00 | 0.00 | 95 | 1011.0 |
| 20260905094502 | 73 | 291 | 0.0 | 0.0 | 0.00 | 0.00 | 0.00 | 95 | 1011.0 |
| 20260905093102 | 73 | 291 | 0.0 | 0.0 | 0.00 | 0.00 | 0.00 | 95 | 1010.7 |
| 20260905091618 | 73 | 291 | 0.0 | 0.0 | 0.00 | 0.00 | 0.00 | 94 | 1010.9 |
| 20260905090058 | 73 | 291 | 0.0 | 0.0 | 0.00 | 0.00 | 0.00 | 94 | 1010.9 |
| 20260905084615 | 73 | 291 | 0.0 | 0.0 | 0.00 | 0.00 | 0.00 | 94 | 1010.9 |
| 20260905083054 | 73 | 291 | 0.0 | 0.0 | 0.00 | 0.00 | 0.00 | 94 | 1011.0 |
| 20260905081557 | 73 | 291 | 0.0 | 0.0 | 0.00 | 0.00 | 0.00 | 94 | 1011.2 |
| 20260905080053 | 73 | 290 | 0.0 | 0.0 | 0.00 | 0.00 | 0.00 | 94 | 1011.2 |
| 20260905074555 | 74 | 291 | 0.0 | 0.0 | 0.00 | 0.00 | 0.00 | 94 | 1011.4 |
| 20260905073049 | 74 | 290 | 0.0 | 0.0 | 0.00 | 0.00 | 0.00 | 93 | 1011.7 |
| 20260905071548 | 74 | 290 | 0.0 | 0.0 | 0.00 | 0.00 | 0.00 | 93 | 1011.6 |
| 20260905070046 | 74 | 290 | 0.0 | 0.0 | 0.00 | 0.00 | 0.00 | 93 | 1011.7 |
| 20260905064545 | 74 | 290 | 0.0 | 0.0 | 0.00 | 0.00 | 0.00 | 93 | 1011.8 |
| 20260905063049 | 74 | 290 | 0.0 | 0.0 | 0.00 | 0.00 | 0.00 | 93 | 1011.9 |
| 20260905061547 | 75 | 290 | 0.0 | 0.0 | 0.00 | 0.00 | 0.00 | 93 | 1011.9 |
| 20260905060042 | 75 | 290 | 0.0 | 0.0 | 0.00 | 0.00 | 0.00 | 92 | 1011.8 |
| 20260905054541 | 75 | 290 | 0.0 | 2.0 | 0.00 | 0.00 | 0.00 | 92 | 1011.8 |
| 20260905053039 | 75 | 290 | 0.0 | 1.0 | 0.00 | 0.00 | 0.00 | 91 | 1011.9 |
| 20260905051540 | 75 | 290 | 0.0 | 1.0 | 0.00 | 0.00 | 0.00 | 92 | 1011.7 |
| 20260905050037 | 76 | 290 | 0.0 | 1.0 | 0.00 | 0.00 | 0.00 | 91 | 1011.9 |
| 20260905044536 | 76 | 290 | 1.0 | 2.0 | 0.00 | 0.00 | 0.00 | 90 | 1011.8 |
| 20260905043033 | 77 | 290 | 0.0 | 2.0 | 0.00 | 0.00 | 0.00 | 90 | 1011.9 |
| 20260905041531 | 76 | 290 | 0.0 | 1.0 | 0.00 | 0.00 | 0.00 | 90 | 1011.7 |
| 20260905040029 | 77 | 290 | 0.0 | 2.0 | 0.00 | 0.00 | 0.00 | 90 | 1011.6 |
| 20260905034530 | 77 | 290 | 0.0 | 2.0 | 0.00 | 0.00 | 0.00 | 89 | 1011.6 |
| 20260905033028 | 78 | 290 | 0.0 | 1.0 | 0.00 | 0.00 | 0.00 | 88 | 1011.9 |
| 20260905031533 | 78 | 290 | 0.0 | 2.0 | 0.00 | 0.00 | 0.00 | 87 | 1011.8 |
| 20260905030032 | 78 | 290 | 0.0 | 0.0 | 0.00 | 0.00 | 0.00 | 88 | 1012.0 |
| 20260905024527 | 78 | 290 | 1.0 | 3.0 | 0.00 | 0.00 | 0.00 | 88 | 1012.1 |
| 20260905023031 | 79 | 290 | 0.0 | 1.0 | 0.00 | 0.00 | 0.00 | 86 | 1012.0 |
| 20260905021525 | 79 | 289 | 0.0 | 1.0 | 0.00 | 0.00 | 0.00 | 86 | 1012.3 |
| 20260905020025 | 79 | 289 | 1.0 | 2.0 | 0.00 | 0.00 | 0.00 | 84 | 1012.2 |
| 20260905014524 | 80 | 289 | 0.0 | 1.0 | 0.00 | 0.00 | 0.00 | 84 | 1012.3 |
| 20260905013022 | 81 | 289 | 0.0 | 2.0 | 0.00 | 0.00 | 0.00 | 81 | 1012.2 |
| 20260905011521 | 82 | 289 | 0.0 | 2.0 | 0.00 | 0.00 | 0.00 | 80 | 1011.9 |
| 20260905010021 | 82 | 289 | 0.0 | 1.0 | 0.00 | 0.00 | 0.00 | 79 | 1012.0 |
| 20260905004521 | 83 | 289 | 0.0 | 1.0 | 0.00 | 0.00 | 0.00 | 76 | 1012.0 |